Time;durP1;ratioP1;P1;durP2;ratioP2;P2;SDS_P1;SDS_P2;PMS_P1;PMS_P2;Temp;Humidity;BMP_temperature;BMP_pressure;BME280_temperature;BME280_humidity;BME280_pressure;Samples;Min_cycle;Max_cycle;Signal;HPM_P1;HPM_P2
2022/07/26 00:01:31;;;;;;;33.67;31.20;;;;;;;20.40;100.00;100693.91;4987619;28;20522;-83
2022/07/26 00:03:58;;;;;;;39.47;36.80;;;;;;;20.88;100.00;100691.69;4994695;28;20129;-81
2022/07/26 00:06:25;;;;;;;35.67;33.17;;;;;;;20.84;100.00;100687.09;4992347;28;20046;-82
2022/07/26 00:08:54;;;;;;;32.55;30.15;;;;;;;20.88;100.00;100683.56;4988706;28;20053;-82
2022/07/26 00:11:24;;;;;;;38.80;36.00;;;;;;;20.13;100.00;100691.50;4987635;28;20062;-82
2022/07/26 00:13:53;;;;;;;41.22;38.03;;;;;;;19.68;100.00;100687.69;4987200;28;20050;-83
2022/07/26 00:16:21;;;;;;;40.30;37.13;;;;;;;20.15;100.00;100692.03;4986722;28;20078;-82
2022/07/26 00:18:49;;;;;;;39.60;36.40;;;;;;;20.64;100.00;100688.78;4993328;28;20462;-82
2022/07/26 00:21:16;;;;;;;37.20;34.45;;;;;;;20.51;100.00;100681.19;4992855;28;20050;-83
2022/07/26 00:23:46;;;;;;;37.70;34.90;;;;;;;20.60;100.00;100679.59;4979477;28;20058;-81
2022/07/26 00:26:13;;;;;;;40.08;37.28;;;;;;;19.64;100.00;100682.03;4992803;28;20062;-82
2022/07/26 00:28:43;;;;;;;34.65;31.95;;;;;;;19.55;100.00;100685.50;4993296;28;20042;-81
2022/07/26 00:31:11;;;;;;;33.65;31.15;;;;;;;20.03;100.00;100680.69;4990910;28;20054;-82
2022/07/26 00:33:39;;;;;;;34.55;31.85;;;;;;;20.42;100.00;100680.13;4987049;28;20074;-82
2022/07/26 00:36:07;;;;;;;36.55;33.92;;;;;;;20.63;100.00;100680.94;4992804;28;20077;-84
2022/07/26 00:38:34;;;;;;;36.03;33.33;;;;;;;20.50;100.00;100680.41;4992365;28;20140;-82
2022/07/26 00:41:02;;;;;;;36.05;33.38;;;;;;;20.17;100.00;100683.69;4992207;28;20529;-82
2022/07/26 00:43:29;;;;;;;30.83;28.15;;;;;;;19.93;100.00;100684.22;4991168;28;20046;-84
2022/07/26 00:45:58;;;;;;;32.78;29.58;;;;;;;19.64;100.00;100679.34;4985114;28;20117;-84
2022/07/26 00:48:26;;;;;;;31.67;29.02;;;;;;;20.09;100.00;100676.91;4991379;28;20086;-82
2022/07/26 00:50:54;;;;;;;34.55;31.77;;;;;;;20.49;100.00;100678.78;4994079;28;20073;-82
2022/07/26 00:53:23;;;;;;;36.83;33.72;;;;;;;20.57;100.00;100670.19;4993050;28;20046;-81
2022/07/26 00:55:51;;;;;;;33.65;30.90;;;;;;;20.55;100.00;100680.44;4986244;28;20058;-81
2022/07/26 00:58:18;;;;;;;34.30;31.60;;;;;;;20.49;100.00;100676.09;4987906;28;20038;-83
2022/07/26 01:00:45;;;;;;;34.42;31.58;;;;;;;20.30;100.00;100678.56;4992541;28;20558;-85
2022/07/26 01:03:14;;;;;;;35.88;33.20;;;;;;;20.23;100.00;100683.41;4984859;28;20054;-84
2022/07/26 01:05:42;;;;;;;35.15;32.42;;;;;;;20.41;100.00;100673.13;4991646;28;20054;-81
2022/07/26 01:08:09;;;;;;;34.22;31.40;;;;;;;20.54;100.00;100672.59;4988790;28;20046;-82
2022/07/26 01:10:37;;;;;;;33.35;30.83;;;;;;;19.77;100.00;100669.91;4985233;28;20061;-82
2022/07/26 01:13:04;;;;;;;32.47;29.98;;;;;;;20.09;100.00;100672.38;4991328;28;20061;-82
2022/07/26 01:15:32;;;;;;;34.30;31.80;;;;;;;20.33;100.00;100666.38;4992488;28;20426;-81
2022/07/26 01:17:59;;;;;;;33.85;31.38;;;;;;;20.27;100.00;100665.63;4990277;28;20483;-83
2022/07/26 01:20:27;;;;;;;35.22;32.42;;;;;;;19.82;100.00;100666.44;4989128;28;20076;-83
2022/07/26 01:22:56;;;;;;;37.17;34.28;;;;;;;19.70;100.00;100666.69;4993284;28;20128;-82
2022/07/26 01:25:37;;;;;;;36.22;33.22;;;;;;;19.97;100.00;100666.44;4985258;28;20514;-82
2022/07/26 01:28:05;;;;;;;40.83;37.53;;;;;;;19.33;100.00;100656.06;4983217;28;20046;-81
2022/07/26 01:30:33;;;;;;;36.63;33.35;;;;;;;19.33;100.00;100664.16;4993667;28;20485;-81
2022/07/26 01:33:00;;;;;;;36.00;33.10;;;;;;;19.02;100.00;100655.16;4988157;28;20061;-81
2022/07/26 01:35:27;;;;;;;35.55;32.55;;;;;;;19.62;100.00;100662.59;4987179;28;20050;-83
2022/07/26 01:37:54;;;;;;;34.78;31.80;;;;;;;19.95;100.00;100663.19;4987310;28;20459;-81
2022/07/26 01:40:22;;;;;;;39.50;36.40;;;;;;;19.83;100.00;100658.06;4987345;28;20061;-81
2022/07/26 01:42:50;;;;;;;39.60;36.60;;;;;;;19.92;100.00;100647.56;4990011;28;20476;-82
2022/07/26 01:45:19;;;;;;;37.80;34.47;;;;;;;19.64;100.00;100654.25;4986460;28;20046;-81
2022/07/26 01:47:49;;;;;;;37.50;34.60;;;;;;;19.63;100.00;100661.50;4991938;28;20054;-82
2022/07/26 01:50:17;;;;;;;35.95;33.08;;;;;;;20.04;100.00;100658.06;4992652;28;20051;-82
2022/07/26 01:52:45;;;;;;;32.75;30.25;;;;;;;19.40;100.00;100646.66;4992196;28;20046;-84
2022/07/26 01:55:12;;;;;;;35.58;32.88;;;;;;;19.29;100.00;100644.22;4997048;28;20058;-81
2022/07/26 01:57:41;;;;;;;34.92;31.83;;;;;;;19.87;100.00;100647.56;4996749;28;20054;-82
2022/07/26 02:02:47;;;;;;;45.20;41.97;;;;;;;19.86;100.00;100651.34;5023413;23;20069;-80
2022/07/26 02:05:14;;;;;;;36.45;33.58;;;;;;;19.44;100.00;100646.94;4991730;28;20384;-81
2022/07/26 02:07:42;;;;;;;36.35;33.45;;;;;;;20.00;100.00;100651.59;4993607;28;20054;-82
2022/07/26 02:10:11;;;;;;;34.97;32.17;;;;;;;20.09;100.00;100653.50;4991980;28;20434;-81
2022/07/26 02:12:40;;;;;;;34.42;31.65;;;;;;;19.47;100.00;100654.50;4984320;28;20058;-80
2022/07/26 02:15:09;;;;;;;36.30;33.30;;;;;;;20.18;100.00;100650.22;4989564;28;20050;-81
2022/07/26 02:17:35;;;;;;;37.35;34.50;;;;;;;19.68;100.00;100658.88;4994516;28;20498;-82
2022/07/26 02:20:02;;;;;;;43.08;40.03;;;;;;;19.53;100.00;100658.00;4992213;28;20112;-80
2022/07/26 02:22:29;;;;;;;36.75;33.75;;;;;;;19.65;100.00;100659.41;4990896;28;20485;-80
2022/07/26 02:24:56;;;;;;;35.60;32.70;;;;;;;19.27;100.00;100655.25;4995123;28;20061;-80
2022/07/26 02:27:23;;;;;;;38.08;35.17;;;;;;;19.32;100.00;100659.84;4986942;28;20050;-80
2022/07/26 02:29:51;;;;;;;42.58;39.25;;;;;;;19.66;100.00;100652.91;4995409;28;20046;-81
2022/07/26 02:32:18;;;;;;;40.90;37.90;;;;;;;19.65;100.00;100656.69;4985588;28;20046;-82
2022/07/26 02:34:51;;;;;;;49.80;45.90;;;;;;;20.46;100.00;100649.66;4992890;28;20491;-79
2022/07/26 02:37:18;;;;;;;43.78;40.38;;;;;;;19.74;100.00;100653.50;4987617;28;20050;-81
2022/07/26 02:39:44;;;;;;;44.50;40.97;;;;;;;20.11;100.00;100661.28;4992020;28;20046;-80
2022/07/26 02:42:11;;;;;;;39.83;36.50;;;;;;;20.19;100.00;100659.97;4988167;28;20047;-81
2022/07/26 02:44:40;;;;;;;39.92;36.75;;;;;;;20.12;100.00;100665.59;4986511;28;20046;-79
2022/07/26 02:47:08;;;;;;;36.63;33.63;;;;;;;20.10;100.00;100660.50;4992354;28;20046;-80
2022/07/26 02:49:35;;;;;;;34.78;31.75;;;;;;;20.21;100.00;100663.16;4989950;28;20061;-81
2022/07/26 02:52:05;;;;;;;35.25;31.77;;;;;;;19.85;100.00;100658.63;4986945;28;20129;-80
2022/07/26 02:54:31;;;;;;;37.35;34.20;;;;;;;19.72;100.00;100663.72;4994101;28;20108;-80
2022/07/26 02:56:58;;;;;;;36.25;33.95;;;;;;;24.43;100.00;100654.06;4988969;28;20541;-81
2022/07/26 02:59:25;;;;;;;31.85;29.58;;;;;;;23.65;100.00;100644.78;4990210;28;20050;-80
2022/07/26 03:01:53;;;;;;;27.98;25.98;;;;;;;21.05;100.00;100650.81;4989869;28;20046;-81
2022/07/26 03:04:21;;;;;;;29.63;27.23;;;;;;;20.80;100.00;100651.75;4989367;28;20415;-80
2022/07/26 03:06:48;;;;;;;31.35;28.85;;;;;;;20.52;100.00;100654.00;4993037;28;20048;-80
2022/07/26 03:09:15;;;;;;;35.75;33.15;;;;;;;20.64;100.00;100648.31;4988927;28;20065;-80
2022/07/26 03:11:42;;;;;;;33.20;30.80;;;;;;;20.31;100.00;100655.88;4992013;28;20050;-81
2022/07/26 03:14:09;;;;;;;30.73;28.42;;;;;;;20.35;100.00;100661.53;4988115;28;20462;-81
2022/07/26 03:16:36;;;;;;;31.27;28.98;;;;;;;20.47;100.00;100663.94;4988023;28;20051;-82
2022/07/26 03:19:02;;;;;;;31.98;29.35;;;;;;;20.35;100.00;100658.84;4990929;28;20054;-80
2022/07/26 03:21:31;;;;;;;30.38;27.85;;;;;;;20.53;100.00;100670.97;4985514;28;20395;-81
2022/07/26 03:23:58;;;;;;;30.20;27.65;;;;;;;20.51;100.00;100667.72;4990344;28;20054;-81
2022/07/26 03:26:24;;;;;;;31.38;28.45;;;;;;;20.55;100.00;100661.53;4989275;28;20046;-81
2022/07/26 03:28:51;;;;;;;32.88;30.02;;;;;;;20.49;100.00;100673.38;4987271;28;20411;-81
2022/07/26 03:31:18;;;;;;;31.92;29.52;;;;;;;20.66;100.00;100661.50;4986235;28;20066;-82
2022/07/26 03:33:46;;;;;;;33.83;31.23;;;;;;;20.78;100.00;100670.09;4990271;28;20133;-82
2022/07/26 03:36:13;;;;;;;33.47;31.13;;;;;;;20.51;100.00;100659.63;4990504;28;20046;-81
2022/07/26 03:38:41;;;;;;;33.72;31.40;;;;;;;20.69;100.00;100667.16;4985424;28;20062;-79
2022/07/26 03:41:08;;;;;;;36.25;33.45;;;;;;;20.78;100.00;100667.41;4988460;28;20055;-80
2022/07/26 03:43:34;;;;;;;39.03;35.72;;;;;;;20.85;100.00;100667.09;4991235;28;20047;-80
2022/07/26 03:46:01;;;;;;;35.42;31.88;;;;;;;20.77;100.00;100669.28;4984356;28;20050;-81
2022/07/26 03:48:28;;;;;;;41.55;37.78;;;;;;;20.80;100.00;100668.75;4990836;28;20050;-81
2022/07/26 03:50:55;;;;;;;41.35;37.15;;;;;;;21.02;100.00;100662.19;4985266;28;20043;-81
2022/07/26 03:53:22;;;;;;;36.35;33.35;;;;;;;21.30;100.00;100665.28;4985688;28;20054;-81
2022/07/26 03:58:34;;;;;;;36.17;33.58;;;;;;;21.30;100.00;100666.09;4988104;28;20202;-80
2022/07/26 04:01:01;;;;;;;33.83;31.42;;;;;;;21.45;100.00;100659.81;4985740;28;20046;-82
2022/07/26 04:03:28;;;;;;;36.58;33.67;;;;;;;21.50;100.00;100663.31;4988702;28;20058;-80
2022/07/26 04:05:54;;;;;;;37.03;34.22;;;;;;;21.27;100.00;100653.97;4993059;28;20057;-81
2022/07/26 04:08:21;;;;;;;36.15;33.55;;;;;;;21.48;100.00;100656.56;4989637;28;20057;-81
2022/07/26 04:10:50;;;;;;;34.97;32.50;;;;;;;21.58;100.00;100653.81;4984122;28;20063;-80
2022/07/26 04:13:17;;;;;;;37.42;34.88;;;;;;;21.48;100.00;100643.88;4988279;28;20129;-81
2022/07/26 04:15:46;;;;;;;37.63;35.13;;;;;;;21.53;100.00;100653.03;4987574;28;20085;-79
2022/07/26 04:18:14;;;;;;;39.10;35.97;;;;;;;21.60;100.00;100646.22;4987235;28;20046;-80
2022/07/26 04:20:42;;;;;;;40.50;37.70;;;;;;;21.65;100.00;100648.06;4988926;28;20494;-80
2022/07/26 04:23:09;;;;;;;37.13;34.50;;;;;;;21.61;100.00;100649.75;4984204;28;20383;-79
2022/07/26 04:25:38;;;;;;;37.45;34.75;;;;;;;21.80;100.00;100657.97;4987582;28;20043;-81
2022/07/26 04:28:11;;;;;;;35.13;32.70;;;;;;;22.01;100.00;100645.09;4987001;28;20050;-80
2022/07/26 04:30:40;;;;;;;34.38;31.95;;;;;;;22.14;100.00;100652.53;4987957;28;20066;-80
2022/07/26 04:33:07;;;;;;;33.90;31.70;;;;;;;22.06;100.00;100653.13;4993468;28;20038;-80
2022/07/26 04:35:34;;;;;;;32.03;29.92;;;;;;;22.14;100.00;100644.44;4982252;28;20472;-79
2022/07/26 04:38:02;;;;;;;31.92;29.52;;;;;;;22.23;100.00;100650.84;4985279;28;20104;-80
2022/07/26 04:40:33;;;;;;;35.50;33.13;;;;;;;22.49;100.00;100640.59;4991569;28;20059;-80
2022/07/26 04:43:02;;;;;;;35.47;33.13;;;;;;;22.33;100.00;100639.13;4991607;28;20073;-82
2022/07/26 04:45:36;;;;;;;34.60;32.10;;;;;;;22.26;100.00;100641.38;4988590;28;20053;-80
2022/07/26 04:48:05;;;;;;;36.30;33.90;;;;;;;22.43;100.00;100644.44;4991310;28;20466;-81
2022/07/26 04:50:33;;;;;;;36.05;33.72;;;;;;;22.46;100.00;100641.16;4988237;28;20059;-80
2022/07/26 04:53:01;;;;;;;36.17;33.75;;;;;;;22.77;100.00;100636.22;4987351;28;20050;-81
2022/07/26 04:55:29;;;;;;;33.47;31.02;;;;;;;22.77;100.00;100636.22;4988610;28;20050;-82
2022/07/26 04:57:56;;;;;;;34.47;31.90;;;;;;;23.04;100.00;100632.91;4990946;28;20525;-79
2022/07/26 05:00:24;;;;;;;32.78;30.38;;;;;;;23.08;100.00;100630.44;4986748;28;20125;-79
2022/07/26 05:02:54;;;;;;;32.85;30.45;;;;;;;23.23;100.00;100629.41;4991795;28;20506;-79
2022/07/26 05:05:23;;;;;;;31.80;29.55;;;;;;;23.22;100.00;100631.31;4992296;28;20133;-80
2022/07/26 05:07:52;;;;;;;31.38;28.90;;;;;;;23.39;100.00;100632.69;4992475;28;20054;-80
2022/07/26 05:10:21;;;;;;;30.48;28.13;;;;;;;23.68;100.00;100627.13;4990304;28;20054;-79
2022/07/26 05:12:51;;;;;;;30.42;28.33;;;;;;;23.62;100.00;100623.69;4989174;28;20593;-79
2022/07/26 05:15:19;;;;;;;31.52;29.02;;;;;;;23.61;100.00;100635.63;4985272;28;20611;-81
2022/07/26 05:17:47;;;;;;;31.67;29.58;;;;;;;23.96;100.00;100631.56;4985386;28;20050;-80
2022/07/26 05:20:16;;;;;;;29.55;27.52;;;;;;;23.88;100.00;100629.53;4986669;28;20051;-80
2022/07/26 05:22:44;;;;;;;29.95;27.85;;;;;;;24.16;100.00;100633.09;4987853;28;20089;-80
2022/07/26 05:25:11;;;;;;;31.27;29.17;;;;;;;24.23;100.00;100625.38;4992387;28;20065;-79
2022/07/26 05:27:48;;;;;;;31.95;29.75;;;;;;;24.50;100.00;100625.72;4988712;28;20046;-80
2022/07/26 05:30:24;;;;;;;30.73;28.63;;;;;;;24.69;100.00;100629.16;4991164;28;20058;-80
2022/07/26 05:32:51;;;;;;;30.48;28.40;;;;;;;24.74;100.00;100626.31;4991654;28;20459;-79
2022/07/26 05:35:23;;;;;;;30.52;28.58;;;;;;;24.94;100.00;100625.09;4990382;28;20062;-80
2022/07/26 05:37:50;;;;;;;30.48;28.48;;;;;;;25.20;100.00;100627.28;4986043;28;20047;-79
2022/07/26 05:40:18;;;;;;;29.17;27.17;;;;;;;25.07;100.00;100626.19;4989851;28;20486;-80
2022/07/26 05:42:45;;;;;;;29.08;27.00;;;;;;;25.25;100.00;100622.53;4982479;28;20062;-80
2022/07/26 05:45:12;;;;;;;30.10;27.95;;;;;;;25.53;100.00;100619.72;4990191;28;20065;-80
2022/07/26 05:47:39;;;;;;;29.08;26.98;;;;;;;25.57;100.00;100626.16;4991651;28;20065;-80
2022/07/26 05:50:07;;;;;;;31.30;29.27;;;;;;;25.88;100.00;100628.16;4987984;28;20062;-79
2022/07/26 05:52:37;;;;;;;29.63;27.55;;;;;;;25.70;100.00;100629.94;4978616;28;20047;-79
2022/07/26 05:55:07;;;;;;;28.48;26.63;;;;;;;25.99;100.00;100627.59;4988482;28;20077;-79
2022/07/26 05:57:35;;;;;;;28.42;26.63;;;;;;;26.12;100.00;100628.63;4985596;28;20077;-80
2022/07/26 06:00:02;;;;;;;28.70;26.88;;;;;;;26.28;100.00;100623.56;4989342;28;20046;-80
2022/07/26 06:02:28;;;;;;;28.77;26.90;;;;;;;26.43;100.00;100628.59;4987705;28;20058;-81
2022/07/26 06:04:55;;;;;;;28.85;26.85;;;;;;;26.54;100.00;100623.69;4987530;28;20057;-80
2022/07/26 06:07:22;;;;;;;26.92;25.13;;;;;;;26.71;100.00;100622.94;4987452;28;20058;-83
2022/07/26 06:09:51;;;;;;;28.27;26.27;;;;;;;26.77;100.00;100618.94;4993389;28;20057;-80
2022/07/26 06:12:18;;;;;;;30.08;28.17;;;;;;;27.24;100.00;100612.97;4989729;28;20050;-80
2022/07/26 06:14:45;;;;;;;31.90;27.58;;;;;;;27.18;100.00;100612.31;4991534;28;20050;-80
2022/07/26 06:17:12;;;;;;;30.15;28.13;;;;;;;27.15;100.00;100610.22;4986521;28;20053;-79
2022/07/26 06:19:49;;;;;;;31.30;29.30;;;;;;;27.31;100.00;100602.34;4990609;28;20430;-79
2022/07/26 06:22:16;;;;;;;30.25;28.15;;;;;;;27.32;100.00;100593.03;4989396;28;20051;-82
2022/07/26 06:24:43;;;;;;;33.95;31.90;;;;;;;27.62;100.00;100594.78;4983429;28;20116;-81
2022/07/26 06:27:12;;;;;;;32.67;30.58;;;;;;;27.86;100.00;100586.09;4985018;28;20050;-79
2022/07/26 06:29:40;;;;;;;32.05;29.95;;;;;;;28.03;100.00;100589.91;4988153;28;20054;-79
2022/07/26 06:32:07;;;;;;;30.05;28.15;;;;;;;27.93;100.00;100588.34;4986645;28;20392;-81
2022/07/26 06:34:35;;;;;;;29.15;27.30;;;;;;;28.08;100.00;100582.34;4982643;28;20058;-83
2022/07/26 06:37:03;;;;;;;30.77;28.58;;;;;;;28.44;100.00;100593.91;4990841;28;20043;-84
2022/07/26 06:39:31;;;;;;;28.52;26.63;;;;;;;28.26;100.00;100593.16;4983755;28;20050;-81
2022/07/26 06:41:57;;;;;;;28.25;26.35;;;;;;;28.38;100.00;100593.28;4994276;28;20061;-81
2022/07/26 06:44:26;;;;;;;28.52;26.63;;;;;;;28.61;100.00;100598.50;4989567;28;20050;-80
2022/07/26 06:46:53;;;;;;;29.42;27.55;;;;;;;28.76;100.00;100587.78;4990838;28;20046;-80
2022/07/26 06:49:20;;;;;;;28.83;26.73;;;;;;;28.79;100.00;100593.72;4993363;28;20051;-81
2022/07/26 06:51:48;;;;;;;27.73;26.02;;;;;;;29.35;100.00;100581.44;4992757;28;20085;-82
2022/07/26 06:54:15;;;;;;;28.77;26.88;;;;;;;29.13;100.00;100590.75;4993372;28;20054;-80
2022/07/26 06:56:42;;;;;;;27.65;25.85;;;;;;;29.31;100.00;100580.47;4990202;28;20050;-79
2022/07/26 06:59:09;;;;;;;28.15;26.35;;;;;;;29.54;100.00;100582.84;4994128;28;20054;-79
2022/07/26 07:01:37;;;;;;;30.15;28.15;;;;;;;29.69;100.00;100584.19;4986602;28;20117;-81
2022/07/26 07:04:05;;;;;;;28.40;26.55;;;;;;;29.80;100.00;100580.66;4993128;28;20050;-79
2022/07/26 07:06:32;;;;;;;28.90;26.90;;;;;;;29.81;100.00;100582.28;4986477;28;20424;-82
2022/07/26 07:08:59;;;;;;;27.48;25.70;;;;;;;29.90;100.00;100579.44;4988021;28;20074;-82
2022/07/26 07:11:26;;;;;;;27.90;25.98;;;;;;;30.22;100.00;100583.25;4986826;28;20054;-79
2022/07/26 07:13:54;;;;;;;28.42;26.48;;;;;;;30.43;100.00;100585.09;4988005;28;20049;-80
2022/07/26 07:16:22;;;;;;;28.15;26.17;;;;;;;30.26;100.00;100588.84;4995236;28;20058;-81
2022/07/26 07:18:51;;;;;;;29.75;27.48;;;;;;;30.45;100.00;100580.84;4995457;28;20059;-80
2022/07/26 07:21:17;;;;;;;28.52;26.63;;;;;;;30.49;100.00;100584.50;4993089;28;20054;-81
2022/07/26 07:23:45;;;;;;;27.63;25.92;;;;;;;30.59;98.41;100580.50;4989775;28;20046;-81
2022/07/26 07:26:13;;;;;;;27.23;25.48;;;;;;;30.85;99.58;100576.59;4993350;28;20042;-82
2022/07/26 07:28:40;;;;;;;27.30;25.50;;;;;;;30.93;89.87;100581.16;4992136;28;20050;-82
2022/07/26 07:31:08;;;;;;;26.58;24.73;;;;;;;30.93;96.37;100576.47;4988630;28;20529;-81
2022/07/26 07:33:35;;;;;;;26.92;25.13;;;;;;;31.05;92.53;100577.59;4989333;28;20116;-81
2022/07/26 07:36:04;;;;;;;29.27;27.27;;;;;;;31.36;89.79;100579.66;4984235;28;20051;-83
2022/07/26 07:38:31;;;;;;;25.95;24.13;;;;;;;31.74;86.38;100581.06;4988795;28;20113;-81
2022/07/26 07:40:58;;;;;;;25.55;24.05;;;;;;;31.62;87.09;100582.75;4984838;28;20057;-82
2022/07/26 07:43:30;;;;;;;27.38;25.38;;;;;;;31.95;85.64;100589.88;4990848;28;20058;-81
2022/07/26 07:45:57;;;;;;;26.30;24.40;;;;;;;32.09;84.76;100581.19;4990358;28;20418;-83
2022/07/26 07:48:24;;;;;;;25.67;23.98;;;;;;;32.01;80.83;100588.44;4992942;28;20116;-79
2022/07/26 07:50:52;;;;;;;27.35;25.45;;;;;;;32.29;82.37;100587.56;4990892;28;20050;-81
2022/07/26 07:53:20;;;;;;;26.88;25.17;;;;;;;32.43;82.21;100579.66;4993280;28;20056;-80
2022/07/26 07:55:47;;;;;;;28.40;26.60;;;;;;;32.18;75.64;100581.81;4993201;28;20491;-80
2022/07/26 07:58:15;;;;;;;26.33;24.83;;;;;;;32.62;75.47;100581.69;4989983;28;20188;-81
2022/07/26 08:00:42;;;;;;;26.95;25.25;;;;;;;32.29;69.41;100574.63;4986662;28;20468;-82
2022/07/26 08:03:12;;;;;;;27.38;25.67;;;;;;;32.22;69.23;100573.66;4988437;28;20116;-80
2022/07/26 08:05:39;;;;;;;27.45;25.75;;;;;;;32.70;70.19;100577.94;4984703;28;20046;-82
2022/07/26 08:08:06;;;;;;;29.30;27.25;;;;;;;32.58;69.25;100575.31;4984584;28;20046;-82
2022/07/26 08:10:34;;;;;;;28.35;26.55;;;;;;;32.68;66.73;100566.50;4988414;28;20061;-80
2022/07/26 08:13:01;;;;;;;28.33;26.55;;;;;;;32.61;63.39;100569.09;4987063;28;20065;-81
2022/07/26 08:15:28;;;;;;;27.77;25.98;;;;;;;32.84;64.73;100566.44;4991681;28;20058;-80
2022/07/26 08:17:55;;;;;;;27.40;25.45;;;;;;;32.65;65.09;100558.97;4981872;28;20047;-82
2022/07/26 08:20:22;;;;;;;28.55;26.70;;;;;;;32.67;59.55;100556.66;4991012;28;20629;-81
2022/07/26 08:22:50;;;;;;;28.45;26.73;;;;;;;32.90;63.44;100558.72;4986707;28;20050;-80
2022/07/26 08:25:17;;;;;;;27.88;26.27;;;;;;;33.03;58.93;100552.72;4986985;28;20051;-80
2022/07/26 08:27:51;;;;;;;27.20;25.60;;;;;;;33.46;59.55;100547.25;4987405;28;20054;-80
2022/07/26 08:30:18;;;;;;;26.02;24.60;;;;;;;33.24;51.03;100541.34;4985418;28;20065;-82
2022/07/26 08:32:45;;;;;;;26.38;24.88;;;;;;;33.38;51.36;100538.06;4984515;28;20046;-80
2022/07/26 08:35:12;;;;;;;29.60;27.98;;;;;;;33.39;45.61;100538.88;4986533;28;20443;-83
2022/07/26 08:37:39;;;;;;;28.38;26.75;;;;;;;32.79;52.70;100537.28;4987552;28;20149;-81
2022/07/26 08:40:08;;;;;;;28.10;26.40;;;;;;;32.73;46.93;100535.97;4989039;28;20050;-81
2022/07/26 08:42:35;;;;;;;26.45;24.75;;;;;;;32.77;51.69;100542.34;4983660;28;20062;-83
2022/07/26 08:45:04;;;;;;;26.92;25.30;;;;;;;33.23;43.67;100536.22;4983365;28;20058;-81
2022/07/26 08:47:31;;;;;;;29.27;27.33;;;;;;;33.50;42.71;100526.09;4989093;28;20474;-81
2022/07/26 08:49:58;;;;;;;27.80;26.10;;;;;;;33.43;40.70;100537.75;4986828;28;20126;-83
2022/07/26 08:52:25;;;;;;;28.88;27.17;;;;;;;32.79;45.81;100530.97;4989050;28;20112;-81
2022/07/26 08:54:52;;;;;;;27.73;26.02;;;;;;;33.18;43.98;100528.25;4986100;28;20042;-81
2022/07/26 08:57:19;;;;;;;26.27;24.67;;;;;;;33.06;44.02;100531.94;4985583;28;20104;-82
2022/07/26 09:00:18;;;;;;;27.20;25.40;;;;;;;33.80;45.93;100530.94;4986948;28;20054;-80
2022/07/26 09:02:45;;;;;;;28.63;26.63;;;;;;;33.73;40.63;100521.41;4985774;28;20080;-81
2022/07/26 09:05:13;;;;;;;28.02;26.23;;;;;;;33.55;44.01;100522.28;4988242;28;20042;-81
2022/07/26 09:07:40;;;;;;;28.60;26.70;;;;;;;33.59;41.81;100525.88;4988130;28;20427;-78
2022/07/26 09:10:10;;;;;;;27.00;25.02;;;;;;;33.95;39.26;100522.56;4990795;28;20458;-78
2022/07/26 09:12:38;;;;;;;26.95;25.13;;;;;;;33.97;40.29;100514.72;4985290;28;20063;-81
2022/07/26 09:15:07;;;;;;;27.45;25.65;;;;;;;33.19;39.78;100514.13;4984591;28;20072;-81
2022/07/26 09:17:44;;;;;;;27.80;25.38;;;;;;;33.54;40.69;100510.47;4979899;28;20428;-80
2022/07/26 09:20:19;;;;;;;27.33;25.48;;;;;;;33.56;40.81;100512.84;4989672;28;20121;-80
2022/07/26 09:23:02;;;;;;;27.65;25.75;;;;;;;34.03;39.84;100506.16;4981209;28;20050;-81
2022/07/26 09:25:31;;;;;;;27.30;25.40;;;;;;;33.82;42.97;100504.63;4987122;28;20466;-81
2022/07/26 09:27:59;;;;;;;26.77;24.85;;;;;;;33.66;44.88;100499.25;4983522;28;20065;-82
2022/07/26 09:30:27;;;;;;;27.63;25.52;;;;;;;33.67;42.33;100509.09;4985390;28;20465;-80
2022/07/26 09:33:03;;;;;;;28.45;26.45;;;;;;;33.95;44.77;100502.47;4983147;28;20057;-83
2022/07/26 09:35:31;;;;;;;27.52;25.20;;;;;;;34.45;38.21;100503.22;4990148;28;20502;-83
2022/07/26 09:38:13;;;;;;;29.25;27.25;;;;;;;34.41;38.29;100507.91;4984905;28;20054;-80
2022/07/26 09:40:41;;;;;;;27.23;25.17;;;;;;;34.24;41.64;100498.22;4983776;28;20065;-80
2022/07/26 09:43:08;;;;;;;25.98;24.08;;;;;;;33.64;45.87;100495.28;4979322;28;20070;-80
2022/07/26 09:45:36;;;;;;;26.90;24.90;;;;;;;33.85;39.00;100492.88;4967842;28;20061;-81
2022/07/26 09:48:05;;;;;;;27.90;26.00;;;;;;;33.97;39.32;100495.44;4982555;28;20395;-82
2022/07/26 09:50:33;;;;;;;30.73;28.60;;;;;;;34.54;37.08;100491.97;4988778;28;20047;-81
2022/07/26 09:53:08;;;;;;;29.95;28.02;;;;;;;34.53;36.81;100476.56;4993737;28;20438;-82
2022/07/26 09:55:55;;;;;;;31.40;29.30;;;;;;;34.52;38.77;100485.97;4989423;28;20050;-81
2022/07/26 09:58:23;;;;;;;31.40;29.20;;;;;;;34.84;34.46;100478.13;4987507;28;20057;-80
2022/07/26 10:00:50;;;;;;;28.40;26.33;;;;;;;35.11;33.70;100476.09;4987998;28;20053;-78
2022/07/26 10:03:18;;;;;;;28.30;26.30;;;;;;;35.17;35.21;100462.75;4991505;28;20042;-81
2022/07/26 10:05:45;;;;;;;31.92;29.83;;;;;;;34.95;35.38;100472.72;4990200;28;20482;-81
2022/07/26 10:08:14;;;;;;;27.65;25.85;;;;;;;35.15;34.14;100467.84;4990294;28;20050;-81
2022/07/26 10:10:47;;;;;;;28.10;26.20;;;;;;;35.02;41.13;100470.06;4987900;28;20057;-80
2022/07/26 10:13:14;;;;;;;29.08;27.08;;;;;;;35.59;33.36;100472.63;4991209;28;20046;-82
2022/07/26 10:15:45;;;;;;;30.60;28.60;;;;;;;35.58;35.82;100463.53;4989327;28;20525;-81
2022/07/26 10:18:46;;;;;;;30.60;28.60;;;;;;;36.01;32.89;100463.84;4984311;28;20050;-81
2022/07/26 10:21:20;;;;;;;31.52;29.27;;;;;;;36.30;31.81;100464.81;4992449;28;20434;-84
2022/07/26 10:23:48;;;;;;;34.17;32.03;;;;;;;35.87;31.75;100458.22;4997204;28;20047;-80
2022/07/26 10:26:41;;;;;;;31.60;29.50;;;;;;;35.90;32.16;100454.69;4995696;28;20042;-80
2022/07/26 10:29:27;;;;;;;30.02;28.05;;;;;;;35.91;32.34;100451.53;4988220;28;20050;-82
2022/07/26 10:32:15;;;;;;;27.17;25.27;;;;;;;36.51;32.17;100449.50;4992659;28;20050;-82
2022/07/26 10:34:45;;;;;;;31.42;29.52;;;;;;;36.37;31.07;100440.00;4982786;28;20491;-83
2022/07/26 10:37:22;;;;;;;32.80;30.90;;;;;;;36.63;33.05;100438.91;4984230;28;20053;-82
2022/07/26 10:40:21;;;;;;;30.90;28.70;;;;;;;36.13;32.70;100440.63;4994873;28;20082;-82
2022/07/26 10:42:49;;;;;;;31.65;29.58;;;;;;;35.57;36.58;100437.09;4993734;28;20495;-82
2022/07/26 10:45:18;;;;;;;31.65;29.45;;;;;;;35.98;30.91;100432.25;4983109;28;20078;-82
2022/07/26 10:48:09;;;;;;;30.42;28.42;;;;;;;36.42;31.54;100433.28;4988923;28;20050;-81
2022/07/26 10:50:38;;;;;;;29.67;27.55;;;;;;;35.73;32.66;100428.53;4987392;28;20050;-82
2022/07/26 10:53:08;;;;;;;30.58;28.38;;;;;;;36.45;32.57;100421.44;4987590;28;20471;-80
2022/07/26 10:55:50;;;;;;;28.08;26.08;;;;;;;36.18;33.22;100421.72;4988992;28;20166;-81
2022/07/26 10:58:17;;;;;;;29.47;27.27;;;;;;;36.41;32.33;100424.19;4985543;28;20051;-81
2022/07/26 11:00:55;;;;;;;31.35;29.10;;;;;;;35.63;37.23;100427.28;4992839;28;20058;-81
2022/07/26 11:03:22;;;;;;;31.17;28.98;;;;;;;34.68;40.45;100419.63;4994931;28;20051;-80
2022/07/26 11:05:51;;;;;;;30.13;28.08;;;;;;;36.92;31.93;100403.81;4993306;28;20054;-81
2022/07/26 11:08:18;;;;;;;30.40;28.30;;;;;;;36.88;32.30;100404.97;4992428;28;20078;-80
2022/07/26 11:10:46;;;;;;;31.38;29.33;;;;;;;36.05;30.24;100414.16;4995442;28;20109;-82
2022/07/26 11:13:16;;;;;;;29.98;27.77;;;;;;;35.99;33.45;100410.94;4995348;28;20050;-81
2022/07/26 11:15:47;;;;;;;30.67;28.77;;;;;;;35.70;36.98;100405.22;4989777;28;20050;-81
2022/07/26 11:18:18;;;;;;;30.27;28.05;;;;;;;35.90;32.97;100407.72;4987548;28;20893;-82